createdAt,value
2018-05-24T00:00:29.592Z,5.60
2018-05-24T00:02:57.004Z,4.32
2018-05-24T00:05:24.425Z,4.93
2018-05-24T00:07:51.927Z,6.30
2018-05-24T00:10:19.248Z,8.93
2018-05-24T00:12:46.656Z,4.68
2018-05-24T00:15:14.080Z,6.20
2018-05-24T00:17:41.488Z,4.68
2018-05-24T00:20:08.912Z,5.22
2018-05-24T00:22:36.320Z,4.10
2018-05-24T00:25:03.761Z,3.10
2018-05-24T00:27:31.167Z,4.70
2018-05-24T00:29:58.589Z,4.00
2018-05-24T00:32:25.996Z,5.22
2018-05-24T00:34:53.434Z,3.45
2018-05-24T00:37:20.844Z,4.65
2018-05-24T00:39:48.255Z,4.35
2018-05-24T00:42:15.664Z,3.08
2018-05-24T00:44:43.093Z,6.18
2018-05-24T00:47:10.505Z,4.60
2018-05-24T00:49:37.921Z,5.12
2018-05-24T00:52:05.332Z,5.30
2018-05-24T00:54:32.750Z,3.70
2018-05-24T00:57:00.165Z,4.07
2018-05-24T00:59:27.607Z,3.22
2018-05-24T01:01:55.033Z,4.30
2018-05-24T01:04:22.449Z,4.45
2018-05-24T01:06:49.864Z,4.95
2018-05-24T01:09:17.287Z,5.70
2018-05-24T01:11:44.699Z,5.25
2018-05-24T01:14:12.125Z,3.33
2018-05-24T01:16:39.538Z,4.60
2018-05-24T01:19:06.958Z,5.90
2018-05-24T01:21:34.384Z,4.85
2018-05-24T01:24:01.805Z,5.25
2018-05-24T01:26:29.210Z,4.60
2018-05-24T01:28:56.620Z,5.55
2018-05-24T01:31:24.039Z,5.18
2018-05-24T01:33:51.453Z,5.62
2018-05-24T01:36:18.868Z,5.20
2018-05-24T01:38:46.271Z,5.50
2018-05-24T01:41:13.692Z,3.92
2018-05-24T01:43:41.145Z,3.67
2018-05-24T01:46:08.566Z,4.20
2018-05-24T01:48:35.987Z,5.75
2018-05-24T01:51:03.404Z,6.05
2018-05-24T01:53:30.817Z,5.28
2018-05-24T01:55:58.230Z,8.25
2018-05-24T01:58:25.641Z,4.40
2018-05-24T02:00:53.061Z,6.93
2018-05-24T02:03:20.469Z,5.95
2018-05-24T02:05:47.886Z,6.60
2018-05-24T02:08:15.298Z,7.20
2018-05-24T02:10:42.712Z,5.90
2018-05-24T02:13:10.122Z,6.18
2018-05-24T02:15:37.539Z,4.07
2018-05-24T02:18:04.950Z,5.28
2018-05-24T02:20:32.366Z,4.43
2018-05-24T02:22:59.780Z,4.90
2018-05-24T02:25:27.197Z,7.43
2018-05-24T02:27:54.613Z,4.55
2018-05-24T02:30:22.039Z,4.60
2018-05-24T02:32:49.455Z,6.78
2018-05-24T02:35:16.873Z,3.67
2018-05-24T02:37:44.280Z,8.35
2018-05-24T02:40:11.710Z,6.07
2018-05-24T02:42:39.130Z,6.50
2018-05-24T02:45:06.536Z,6.75
2018-05-24T02:47:33.945Z,5.60
2018-05-24T02:50:01.354Z,9.80
2018-05-24T02:52:28.785Z,5.65
2018-05-24T02:54:56.197Z,2.47
2018-05-24T02:57:23.601Z,5.55
2018-05-24T02:59:51.023Z,6.28
2018-05-24T03:02:18.428Z,3.15
2018-05-24T03:04:45.852Z,6.97
2018-05-24T03:07:13.257Z,3.15
2018-05-24T03:09:40.677Z,5.32
2018-05-24T03:12:08.089Z,3.33
2018-05-24T03:14:35.509Z,4.70
2018-05-24T03:17:02.929Z,3.65
2018-05-24T03:19:30.328Z,4.22
2018-05-24T03:21:57.756Z,6.30
2018-05-24T03:24:25.177Z,2.67
2018-05-24T03:26:52.595Z,2.85
2018-05-24T03:29:20.012Z,15.90
2018-05-24T03:31:47.421Z,3.37
2018-05-24T03:34:14.829Z,5.97
2018-05-24T03:36:42.297Z,3.58
2018-05-24T03:39:09.781Z,5.37
2018-05-24T03:41:37.205Z,3.95
2018-05-24T03:44:04.616Z,3.45
2018-05-24T03:46:32.040Z,2.97
2018-05-24T03:48:59.441Z,2.87
2018-05-24T03:51:26.857Z,4.32
2018-05-24T03:53:54.267Z,3.85
2018-05-24T03:56:21.724Z,3.65
2018-05-24T03:58:49.138Z,16.25
2018-05-24T04:01:28.451Z,3.95
2018-05-24T04:03:55.856Z,2.42
2018-05-24T04:06:24.196Z,3.58
2018-05-24T04:08:51.604Z,3.65
2018-05-24T04:11:19.025Z,3.55
2018-05-24T04:13:46.457Z,5.80
2018-05-24T04:16:13.872Z,4.15
2018-05-24T04:18:41.278Z,5.93
2018-05-24T04:21:08.699Z,1.73
2018-05-24T04:23:36.173Z,2.95
2018-05-24T04:26:03.587Z,3.50
2018-05-24T04:28:31.089Z,5.45
2018-05-24T04:30:58.530Z,3.47
2018-05-24T04:33:25.936Z,2.22
2018-05-24T04:35:53.348Z,2.87
2018-05-24T04:38:20.767Z,8.52
2018-05-24T04:40:48.174Z,5.80
2018-05-24T04:43:15.604Z,5.10
2018-05-24T04:45:43.002Z,3.45
2018-05-24T04:48:10.428Z,6.30
2018-05-24T04:50:37.872Z,3.50
2018-05-24T04:53:05.300Z,3.92
2018-05-24T04:55:32.794Z,4.35
2018-05-24T04:58:00.145Z,4.00
2018-05-24T05:00:27.593Z,3.30
2018-05-24T05:02:55.013Z,3.97
2018-05-24T05:05:22.420Z,4.37
2018-05-24T05:07:49.840Z,4.72
2018-05-24T05:10:17.315Z,3.85
2018-05-24T05:12:44.736Z,6.80
2018-05-24T05:15:12.148Z,5.28
2018-05-24T05:17:39.559Z,5.65
2018-05-24T05:20:06.964Z,4.72
2018-05-24T05:22:34.381Z,5.15
2018-05-24T05:25:01.801Z,3.95
2018-05-24T05:27:29.208Z,5.62
2018-05-24T05:29:56.616Z,4.70
2018-05-24T05:32:24.028Z,4.30
2018-05-24T05:34:51.455Z,7.05
2018-05-24T05:37:18.868Z,3.53
2018-05-24T05:39:46.285Z,4.80
2018-05-24T05:42:13.741Z,5.07
2018-05-24T05:44:41.218Z,4.37
2018-05-24T05:47:08.567Z,6.78
2018-05-24T05:49:35.984Z,4.05
2018-05-24T05:52:03.414Z,2.22
2018-05-24T05:54:30.908Z,5.87
2018-05-24T05:56:58.320Z,5.22
2018-05-24T05:59:25.741Z,8.35
2018-05-24T06:01:53.259Z,4.07
2018-05-24T06:04:20.587Z,4.03
2018-05-24T06:06:47.993Z,4.35
2018-05-24T06:09:15.421Z,5.70
2018-05-24T06:11:42.825Z,5.57
2018-05-24T06:14:10.255Z,5.68
2018-05-24T06:16:37.660Z,3.72
2018-05-24T06:19:05.077Z,5.65
2018-05-24T06:21:32.512Z,5.18
2018-05-24T06:23:59.905Z,5.50
2018-05-24T06:26:27.316Z,6.00
2018-05-24T06:28:54.777Z,7.57
2018-05-24T06:31:22.193Z,4.28
2018-05-24T06:33:49.688Z,5.95
2018-05-24T06:36:17.101Z,6.03
2018-05-24T06:38:44.511Z,8.15
2018-05-24T06:41:11.941Z,7.30
2018-05-24T06:43:39.352Z,6.95
2018-05-24T06:46:06.760Z,8.20
2018-05-24T06:48:34.185Z,5.53
2018-05-24T06:51:01.595Z,6.97
2018-05-24T06:53:29.017Z,6.12
2018-05-24T06:55:56.420Z,9.63
2018-05-24T06:58:23.841Z,9.02
2018-05-24T07:00:51.248Z,6.82
2018-05-24T07:03:18.660Z,5.22
2018-05-24T07:05:46.132Z,9.43
2018-05-24T07:08:13.496Z,9.13
2018-05-24T07:10:40.910Z,10.40
2018-05-24T07:13:08.329Z,8.85
2018-05-24T07:15:35.738Z,9.63
2018-05-24T07:18:03.169Z,11.35
2018-05-24T07:20:30.581Z,11.05
2018-05-24T07:22:58.012Z,12.73
2018-05-24T07:25:25.429Z,14.25
2018-05-24T07:27:52.852Z,11.75
2018-05-24T07:30:20.278Z,12.35
2018-05-24T07:32:47.704Z,11.95
2018-05-24T07:35:15.126Z,12.27
2018-05-24T07:37:42.566Z,9.20
2018-05-24T07:40:09.956Z,16.17
2018-05-24T07:42:37.385Z,13.45
2018-05-24T07:45:04.814Z,18.83
2018-05-24T07:47:32.213Z,19.02
2018-05-24T07:49:59.638Z,14.90
2018-05-24T07:52:27.053Z,13.95
2018-05-24T07:54:54.577Z,19.60
2018-05-24T07:57:21.895Z,20.27
2018-05-24T07:59:49.341Z,20.17
2018-05-24T08:02:16.757Z,22.27
2018-05-24T08:04:44.192Z,20.98
2018-05-24T08:07:11.602Z,22.30
2018-05-24T08:09:39.026Z,26.05
2018-05-24T08:12:06.441Z,22.60
2018-05-24T08:14:33.876Z,25.02
2018-05-24T08:17:01.310Z,24.67
2018-05-24T08:19:28.743Z,24.23
2018-05-24T08:21:56.156Z,27.75
2018-05-24T08:24:23.591Z,30.75
2018-05-24T08:26:51.003Z,20.60
2018-05-24T08:29:18.440Z,28.62
2018-05-24T08:31:45.853Z,23.35
2018-05-24T08:34:13.280Z,27.50
2018-05-24T08:36:40.705Z,27.75
2018-05-24T08:39:08.136Z,20.48
2018-05-24T08:41:35.552Z,28.70
2018-05-24T08:44:02.980Z,21.77
2018-05-24T08:46:30.429Z,20.95
2018-05-24T08:48:57.855Z,23.75
2018-05-24T08:51:25.345Z,24.17
2018-05-24T08:53:52.767Z,20.35
2018-05-24T08:56:20.186Z,19.60
2018-05-24T08:58:47.716Z,18.40
2018-05-24T09:01:15.215Z,24.73
2018-05-24T09:03:42.568Z,34.92
2018-05-24T09:06:10.074Z,27.80
2018-05-24T09:08:37.500Z,22.85
2018-05-24T09:11:04.988Z,26.02
2018-05-24T09:13:32.420Z,35.38
2018-05-24T09:15:59.836Z,34.97
2018-05-24T09:18:27.355Z,26.98
2018-05-24T09:20:54.781Z,26.98
2018-05-24T09:23:22.192Z,42.17
2018-05-24T09:25:49.625Z,36.35
2018-05-24T09:28:17.052Z,41.95
2018-05-24T09:30:44.469Z,35.67
2018-05-24T09:33:11.884Z,32.40
2018-05-24T09:35:39.308Z,34.95
2018-05-24T09:38:06.730Z,32.72
2018-05-24T09:40:34.249Z,32.72
2018-05-24T09:43:01.704Z,38.75
2018-05-24T09:45:29.168Z,30.37
2018-05-24T09:47:56.615Z,27.60
2018-05-24T09:50:24.076Z,49.80
2018-05-24T09:52:51.491Z,30.08
2018-05-24T09:55:19.013Z,37.38
2018-05-24T09:57:46.448Z,29.58
2018-05-24T10:00:13.875Z,29.92
2018-05-24T10:02:41.357Z,30.30
2018-05-24T10:05:08.784Z,32.33
2018-05-24T10:07:36.266Z,34.80
2018-05-24T10:10:03.701Z,31.67
2018-05-24T10:12:31.111Z,48.35
2018-05-24T10:14:58.635Z,29.65
2018-05-24T10:17:26.061Z,38.35
2018-05-24T10:19:53.496Z,27.05
2018-05-24T10:22:20.921Z,40.22
2018-05-24T10:24:48.347Z,35.35
2018-05-24T10:27:15.818Z,34.20
2018-05-24T10:29:43.239Z,43.45
2018-05-24T10:32:10.653Z,33.03
2018-05-24T10:34:38.082Z,33.10
2018-05-24T10:37:05.500Z,43.45
2018-05-24T10:39:33.000Z,45.60
2018-05-24T10:42:00.404Z,33.50
2018-05-24T10:44:27.897Z,67.22
2018-05-24T10:46:55.316Z,44.17
2018-05-24T10:49:22.821Z,40.70
2018-05-24T10:51:50.236Z,47.62
2018-05-24T10:54:17.774Z,40.90
2018-05-24T10:56:45.104Z,44.42
2018-05-24T10:59:12.530Z,49.20
2018-05-24T11:01:39.951Z,55.50
2018-05-24T11:04:07.436Z,63.40
2018-05-24T11:06:34.857Z,63.47
2018-05-24T11:09:02.272Z,58.42
2018-05-24T11:11:29.693Z,48.58
2018-05-24T11:13:57.120Z,47.25
2018-05-24T11:16:24.543Z,45.15
2018-05-24T11:18:51.963Z,45.45
2018-05-24T11:21:19.391Z,32.50
2018-05-24T11:23:46.876Z,63.15
2018-05-24T11:26:14.360Z,71.65
2018-05-24T11:28:41.783Z,79.70
2018-05-24T11:31:09.199Z,59.85
2018-05-24T11:33:36.617Z,49.17
2018-05-24T11:36:04.045Z,51.92
2018-05-24T11:38:31.460Z,67.55
2018-05-24T11:40:58.884Z,70.35
2018-05-24T11:43:26.489Z,65.20
2018-05-24T11:45:53.737Z,59.80
2018-05-24T11:48:21.156Z,61.42
2018-05-24T11:50:48.583Z,67.82
2018-05-24T11:53:16.008Z,71.47
2018-05-24T11:55:43.436Z,45.67
2018-05-24T11:58:10.854Z,44.40
2018-05-24T12:00:38.291Z,53.38
2018-05-24T12:03:05.713Z,58.33
2018-05-24T12:05:33.138Z,52.58
2018-05-24T12:08:00.553Z,49.05
2018-05-24T12:10:27.976Z,52.65
2018-05-24T12:12:55.393Z,53.10
2018-05-24T12:15:22.824Z,49.75
2018-05-24T12:17:50.244Z,49.00
2018-05-24T12:20:17.672Z,66.87
2018-05-24T12:22:45.089Z,62.05
2018-05-24T12:25:12.512Z,51.50
2018-05-24T12:27:39.936Z,64.18
2018-05-24T12:30:07.364Z,60.60
2018-05-24T12:32:34.779Z,56.17
2018-05-24T12:35:02.201Z,64.90
2018-05-24T12:37:29.625Z,65.55
2018-05-24T12:39:57.049Z,69.68
2018-05-24T12:42:24.476Z,60.60
2018-05-24T12:44:51.897Z,64.28
2018-05-24T12:47:19.321Z,55.97
2018-05-24T12:49:46.801Z,71.70
2018-05-24T12:52:14.232Z,68.18
2018-05-24T12:54:41.648Z,69.95
2018-05-24T12:57:09.068Z,68.82
2018-05-24T12:59:36.496Z,68.85
2018-05-24T13:02:03.921Z,67.53
2018-05-24T13:04:31.360Z,43.70
2018-05-24T13:06:58.777Z,67.40
2018-05-24T13:09:26.197Z,68.40
2018-05-24T13:11:53.625Z,70.53
2018-05-24T13:14:21.041Z,74.97
2018-05-24T13:16:48.464Z,60.53
2018-05-24T13:19:15.885Z,63.25
2018-05-24T13:21:43.308Z,59.47
2018-05-24T13:24:10.721Z,50.45
2018-05-24T13:26:38.149Z,51.13
2018-05-24T13:29:05.572Z,68.25
2018-05-24T13:31:32.996Z,71.37
2018-05-24T13:34:00.409Z,64.55
2018-05-24T13:36:27.830Z,74.80
2018-05-24T13:38:55.252Z,58.87
2018-05-24T13:41:22.664Z,56.35
2018-05-24T13:43:50.080Z,57.33
2018-05-24T13:46:17.508Z,62.70
2018-05-24T13:48:44.920Z,42.90
2018-05-24T13:51:12.357Z,49.97
2018-05-24T13:53:39.776Z,49.63
2018-05-24T13:56:07.200Z,55.15
2018-05-24T13:58:34.608Z,56.80
2018-05-24T14:01:02.035Z,72.97
2018-05-24T14:03:29.448Z,60.45
2018-05-24T14:05:56.860Z,49.10
2018-05-24T14:08:24.329Z,58.72
2018-05-24T14:10:51.703Z,41.97
2018-05-24T14:13:19.128Z,43.90
2018-05-24T14:15:46.541Z,57.85
2018-05-24T14:18:13.968Z,64.97
2018-05-24T14:20:41.395Z,56.13
2018-05-24T14:23:08.883Z,52.38
2018-05-24T14:25:36.299Z,51.00
2018-05-24T14:28:03.724Z,55.50
2018-05-24T14:30:31.148Z,56.47
2018-05-24T14:32:58.571Z,50.03
2018-05-24T14:35:25.984Z,40.45
2018-05-24T14:37:53.410Z,55.45
2018-05-24T14:40:20.859Z,49.05
2018-05-24T14:42:48.276Z,54.85
2018-05-24T14:45:15.773Z,56.22
2018-05-24T14:47:43.196Z,44.03
2018-05-24T14:50:10.685Z,37.67
2018-05-24T14:52:38.148Z,43.17
2018-05-24T14:55:05.595Z,43.75
2018-05-24T14:57:33.086Z,44.92
2018-05-24T15:00:00.508Z,47.13
2018-05-24T15:02:27.929Z,45.58
2018-05-24T15:04:55.415Z,39.72
2018-05-24T15:07:22.873Z,44.25
2018-05-24T15:09:50.327Z,47.60
2018-05-24T15:12:17.760Z,49.60
2018-05-24T15:14:45.240Z,53.47
2018-05-24T15:17:12.666Z,54.17
2018-05-24T15:19:40.169Z,63.10
2018-05-24T15:22:07.623Z,52.72
2018-05-24T15:24:35.037Z,45.67
2018-05-24T15:27:02.582Z,47.95
2018-05-24T15:29:30.013Z,42.67
2018-05-24T15:31:57.445Z,45.53
2018-05-24T15:34:24.889Z,40.25
2018-05-24T15:36:52.308Z,43.42
2018-05-24T15:39:19.728Z,44.13
2018-05-24T15:41:47.269Z,43.92
2018-05-24T15:44:14.703Z,39.58
2018-05-24T15:46:42.161Z,46.28
2018-05-24T15:49:09.600Z,48.90
2018-05-24T15:51:37.073Z,44.13
2018-05-24T15:54:04.500Z,47.75
2018-05-24T15:56:31.930Z,42.60
2018-05-24T15:58:59.343Z,39.53
2018-05-24T16:01:26.764Z,57.08
2018-05-24T16:03:54.256Z,49.00
2018-05-24T16:06:21.680Z,52.62
2018-05-24T16:08:49.112Z,44.05
2018-05-24T16:11:16.532Z,36.67
2018-05-24T16:13:43.951Z,38.33
2018-05-24T16:16:11.432Z,36.30
2018-05-24T16:18:38.864Z,55.20
2018-05-24T16:21:06.272Z,38.85
2018-05-24T16:23:33.704Z,39.95
2018-05-24T16:26:01.153Z,32.60
2018-05-24T16:28:28.577Z,27.35
2018-05-24T16:30:55.993Z,26.90
2018-05-24T16:33:28.336Z,22.52
2018-05-24T16:35:55.760Z,26.40
2018-05-24T16:38:23.202Z,22.83
2018-05-24T16:40:50.614Z,37.70
2018-05-24T16:43:18.078Z,29.48
2018-05-24T16:45:46.588Z,20.60
2018-05-24T16:48:14.045Z,29.27
2018-05-24T16:50:41.457Z,32.53
2018-05-24T16:53:11.652Z,28.05
2018-05-24T16:55:39.210Z,28.98
2018-05-24T16:58:06.977Z,27.02
2018-05-24T17:00:34.484Z,21.08
2018-05-24T17:03:01.895Z,29.52
2018-05-24T17:05:29.561Z,29.73
2018-05-24T17:07:57.124Z,36.20
2018-05-24T17:10:24.573Z,24.15
2018-05-24T17:12:51.976Z,21.42
2018-05-24T17:15:19.408Z,21.85
2018-05-24T17:17:46.843Z,24.33
2018-05-24T17:20:14.266Z,23.73
2018-05-24T17:22:41.677Z,22.08
2018-05-24T17:25:09.096Z,25.20
2018-05-24T17:27:36.512Z,17.40
2018-05-24T17:30:03.932Z,23.05
2018-05-24T17:32:31.433Z,14.90
2018-05-24T17:34:58.848Z,22.45
2018-05-24T17:37:26.272Z,20.45
2018-05-24T17:39:53.693Z,12.90
2018-05-24T17:42:21.108Z,16.15
2018-05-24T17:44:48.642Z,12.75
2018-05-24T17:47:16.061Z,18.02
2018-05-24T17:49:43.480Z,23.65
2018-05-24T17:52:10.908Z,18.08
2018-05-24T17:54:38.345Z,19.25
2018-05-24T17:57:05.752Z,22.05
2018-05-24T17:59:33.254Z,17.10
2018-05-24T18:02:00.678Z,20.77
2018-05-24T18:04:28.180Z,16.37
2018-05-24T18:06:55.606Z,25.02
2018-05-24T18:09:23.032Z,19.08
2018-05-24T18:11:50.450Z,19.00
2018-05-24T18:14:17.876Z,19.27
2018-05-24T18:16:45.288Z,16.48
2018-05-24T18:19:12.713Z,18.12
2018-05-24T18:21:40.133Z,15.85
2018-05-24T18:24:07.564Z,21.05
2018-05-24T18:26:35.069Z,19.00
2018-05-24T18:29:02.501Z,19.75
2018-05-24T18:31:29.928Z,21.58
2018-05-24T18:33:57.645Z,18.35
2018-05-24T18:36:25.209Z,18.02
2018-05-24T18:38:52.640Z,17.83
2018-05-24T18:41:20.147Z,11.73
2018-05-24T18:43:47.565Z,14.10
2018-05-24T18:46:15.039Z,16.92
2018-05-24T18:48:42.563Z,16.20
2018-05-24T18:51:10.000Z,13.70
2018-05-24T18:53:37.421Z,12.70
2018-05-24T18:56:04.966Z,14.50
2018-05-24T18:58:32.377Z,16.58
2018-05-24T19:00:59.820Z,16.12
2018-05-24T19:03:27.317Z,11.40
2018-05-24T19:05:54.737Z,20.05
2018-05-24T19:08:22.157Z,21.17
2018-05-24T19:10:50.015Z,10.95
2018-05-24T19:13:17.552Z,19.33
2018-05-24T19:15:44.993Z,11.80
2018-05-24T19:18:12.417Z,11.48
2018-05-24T19:20:43.192Z,11.38
2018-05-24T19:23:10.642Z,17.42
2018-05-24T19:25:38.056Z,9.45
2018-05-24T19:28:05.709Z,9.80
2018-05-24T19:30:33.120Z,16.73
2018-05-24T19:33:00.567Z,12.30
2018-05-24T19:35:28.037Z,12.95
2018-05-24T19:37:55.457Z,12.35
2018-05-24T19:40:22.885Z,11.23
2018-05-24T19:42:50.296Z,10.25
2018-05-24T19:45:17.737Z,12.05
2018-05-24T19:47:45.177Z,19.27
2018-05-24T19:50:12.592Z,15.57
2018-05-24T19:52:40.017Z,10.90
2018-05-24T19:55:07.474Z,9.75
2018-05-24T19:57:34.887Z,17.83
2018-05-24T20:00:02.403Z,17.98
2018-05-24T20:02:29.828Z,14.05
2018-05-24T20:04:57.260Z,11.63
2018-05-24T20:07:24.752Z,12.65
2018-05-24T20:09:52.165Z,9.90
2018-05-24T20:12:19.639Z,11.82
2018-05-24T20:14:47.053Z,9.07
2018-05-24T20:17:14.464Z,12.15
2018-05-24T20:19:41.921Z,12.05
2018-05-24T20:22:09.336Z,9.25
2018-05-24T20:24:36.746Z,10.27
2018-05-24T20:27:04.185Z,9.45
2018-05-24T20:29:31.640Z,9.45
2018-05-24T20:31:59.073Z,11.25
2018-05-24T20:34:26.480Z,9.02
2018-05-24T20:36:53.904Z,7.15
2018-05-24T20:39:21.319Z,7.05
2018-05-24T20:41:48.732Z,8.65
2018-05-24T20:44:16.148Z,6.87
2018-05-24T20:46:48.403Z,7.00
2018-05-24T20:49:15.816Z,7.70
2018-05-24T20:51:43.246Z,5.45
2018-05-24T20:54:10.649Z,6.85
2018-05-24T20:56:38.070Z,7.47
2018-05-24T20:59:05.456Z,7.50
2018-05-24T21:01:32.877Z,8.80
2018-05-24T21:04:00.294Z,5.12
2018-05-24T21:06:27.711Z,6.40
2018-05-24T21:08:55.123Z,7.25
2018-05-24T21:11:22.550Z,10.20
2018-05-24T21:13:49.962Z,9.13
2018-05-24T21:16:17.381Z,9.88
2018-05-24T21:18:44.784Z,13.57
2018-05-24T21:21:12.213Z,10.95
2018-05-24T21:23:39.651Z,6.57
2018-05-24T21:26:07.056Z,8.55
2018-05-24T21:28:34.460Z,9.40
2018-05-24T21:31:01.886Z,9.52
2018-05-24T21:33:29.304Z,9.65
2018-05-24T21:35:56.728Z,14.87
2018-05-24T21:38:24.156Z,12.02
2018-05-24T21:40:51.569Z,7.03
2018-05-24T21:43:18.982Z,9.45
2018-05-24T21:45:46.397Z,8.30
2018-05-24T21:48:13.804Z,8.35
2018-05-24T21:50:41.221Z,8.80
2018-05-24T21:53:08.628Z,9.13
2018-05-24T21:55:36.041Z,6.90
2018-05-24T21:58:03.465Z,7.10
2018-05-24T22:00:30.872Z,7.45
2018-05-24T22:02:58.295Z,7.07
2018-05-24T22:05:25.704Z,8.55
2018-05-24T22:07:53.121Z,7.90
2018-05-24T22:10:20.543Z,8.25
2018-05-24T22:12:47.957Z,5.78
2018-05-24T22:15:15.368Z,10.05
2018-05-24T22:17:42.790Z,5.40
2018-05-24T22:20:10.203Z,8.60
2018-05-24T22:22:37.615Z,4.87
2018-05-24T22:25:05.024Z,8.95
2018-05-24T22:27:32.444Z,4.35
2018-05-24T22:29:59.853Z,5.87
2018-05-24T22:32:27.275Z,5.57
2018-05-24T22:34:54.692Z,5.95
2018-05-24T22:37:22.100Z,5.22
2018-05-24T22:39:49.515Z,4.80
2018-05-24T22:42:16.932Z,8.95
2018-05-24T22:44:44.382Z,5.53
2018-05-24T22:47:11.756Z,5.90
2018-05-24T22:49:39.168Z,6.80
2018-05-24T22:52:06.593Z,6.10
2018-05-24T22:54:33.995Z,6.05
2018-05-24T22:57:01.411Z,5.80
2018-05-24T22:59:28.864Z,7.62
2018-05-24T23:01:56.273Z,8.82
2018-05-24T23:04:23.689Z,9.70
2018-05-24T23:06:51.113Z,6.87
2018-05-24T23:09:18.520Z,7.12
2018-05-24T23:11:45.950Z,14.30
2018-05-24T23:14:13.370Z,5.40
2018-05-24T23:16:40.780Z,5.50
2018-05-24T23:19:08.195Z,9.07
2018-05-24T23:21:35.612Z,6.30
2018-05-24T23:24:03.024Z,8.27
2018-05-24T23:26:30.429Z,4.87
2018-05-24T23:28:57.844Z,5.78
2018-05-24T23:31:25.254Z,4.55
2018-05-24T23:33:52.671Z,4.22
2018-05-24T23:36:20.084Z,6.60
2018-05-24T23:38:47.498Z,6.62
2018-05-24T23:41:14.901Z,3.75
2018-05-24T23:43:42.336Z,5.20
2018-05-24T23:46:09.749Z,5.78
2018-05-24T23:48:37.177Z,3.97
2018-05-24T23:51:04.571Z,4.12
2018-05-24T23:53:31.992Z,9.38
2018-05-24T23:55:59.408Z,6.10
2018-05-24T23:58:26.825Z,5.50
